Time;durP1;ratioP1;P1;durP2;ratioP2;P2;SDS_P1;SDS_P2;PMS_P1;PMS_P2;Temp;Humidity;BMP_temperature;BMP_pressure;BME280_temperature;BME280_humidity;BME280_pressure;Samples;Min_cycle;Max_cycle;Signal;HPM_P1;HPM_P2
2022/07/16 00:01:57;;;;;;;1.38;0.80;;;;;;;;;;4931146;29;20236;-80
2022/07/16 00:04:23;;;;;;;0.85;0.70;;;;;;;;;;4934605;29;20251;-80
2022/07/16 00:06:48;;;;;;;2.08;0.80;;;;;;;;;;4900903;29;20232;-81
2022/07/16 00:09:14;;;;;;;0.90;0.50;;;;;;;;;;4920537;29;20216;-80
2022/07/16 00:11:41;;;;;;;1.75;0.60;;;;;;;;;;4925889;29;20232;-83
2022/07/16 00:14:07;;;;;;;0.80;0.80;;;;;;;;;;4878313;29;20227;-82
2022/07/16 00:16:32;;;;;;;1.27;0.77;;;;;;;;;;4891208;29;20228;-83
2022/07/16 00:19:18;;;;;;;1.08;0.60;;;;;;;;;;4912808;29;20228;-81
2022/07/16 00:21:47;;;;;;;2.78;0.75;;;;;;;;;;4890202;29;20388;-82
2022/07/16 00:24:16;;;;;;;0.52;0.50;;;;;;;;;;4912055;29;20228;-83
2022/07/16 00:26:41;;;;;;;1.23;0.80;;;;;;;;;;4905213;29;20231;-85
2022/07/16 00:29:07;;;;;;;1.90;0.98;;;;;;;;;;4909196;29;20224;-83
2022/07/16 00:31:32;;;;;;;3.08;0.90;;;;;;;;;;4896845;29;20252;-86
2022/07/16 00:34:02;;;;;;;2.92;1.10;;;;;;;;;;4901906;29;20517;-83
2022/07/16 00:36:28;;;;;;;1.63;1.10;;;;;;;;;;4916984;29;20244;-85
2022/07/16 00:38:53;;;;;;;1.33;1.00;;;;;;;;;;4895866;29;20264;-85
2022/07/16 00:41:21;;;;;;;1.15;1.00;;;;;;;;;;4901432;29;20229;-83
2022/07/16 00:47:37;;;;;;;2.17;1.10;;;;;;;;;;4918715;29;20242;-87
2022/07/16 00:50:08;;;;;;;1.83;1.10;;;;;;;;;;4911581;29;20225;-83
2022/07/16 00:52:35;;;;;;;2.13;0.88;;;;;;;;;;4920587;29;20244;-83
2022/07/16 00:55:00;;;;;;;2.63;1.00;;;;;;;;;;4890048;29;20702;-84
2022/07/16 00:57:26;;;;;;;2.70;0.98;;;;;;;;;;4920644;29;20244;-84
2022/07/16 00:59:51;;;;;;;1.83;1.10;;;;;;;;;;4908966;29;20624;-85
2022/07/16 01:02:17;;;;;;;1.85;1.10;;;;;;;;;;4912238;29;20238;-86
2022/07/16 01:04:43;;;;;;;4.40;1.20;;;;;;;;;;4922258;29;20240;-85
2022/07/16 01:07:08;;;;;;;2.38;1.50;;;;;;;;;;4919563;29;20247;-86
2022/07/16 01:09:34;;;;;;;2.72;1.13;;;;;;;;;;4890174;29;20235;-85
2022/07/16 01:12:40;;;;;;;2.33;1.13;;;;;;;;;;4908302;29;20251;-84
2022/07/16 01:15:11;;;;;;;2.13;1.25;;;;;;;;;;4920041;29;20248;-85
2022/07/16 01:17:37;;;;;;;2.90;1.20;;;;;;;;;;4919187;29;20302;-86
2022/07/16 01:20:06;;;;;;;2.25;1.20;;;;;;;;;;4904158;29;20232;-85
2022/07/16 01:22:31;;;;;;;2.05;1.50;;;;;;;;;;4895477;29;20224;-86
2022/07/16 01:24:57;;;;;;;2.28;1.30;;;;;;;;;;4909716;29;20229;-85
2022/07/16 01:27:23;;;;;;;4.00;1.10;;;;;;;;;;4886511;29;20233;-85
2022/07/16 01:29:48;;;;;;;2.13;1.30;;;;;;;;;;4907031;29;20701;-86
2022/07/16 01:32:16;;;;;;;2.92;1.25;;;;;;;;;;4888018;29;20251;-86
2022/07/16 01:34:44;;;;;;;2.15;1.35;;;;;;;;;;4891034;29;20251;-85
2022/07/16 01:37:09;;;;;;;2.22;1.38;;;;;;;;;;4905646;29;20693;-84
2022/07/16 01:39:38;;;;;;;1.17;1.13;;;;;;;;;;4886432;29;20235;-87
2022/07/16 01:42:05;;;;;;;2.65;1.30;;;;;;;;;;4913693;29;20244;-85
2022/07/16 01:44:35;;;;;;;2.03;1.30;;;;;;;;;;4918973;29;20231;-83
2022/07/16 01:47:00;;;;;;;2.50;1.50;;;;;;;;;;4914171;29;20317;-84
2022/07/16 01:49:30;;;;;;;1.35;1.25;;;;;;;;;;4913582;29;20224;-85
2022/07/16 01:51:55;;;;;;;2.53;1.30;;;;;;;;;;4913559;29;20304;-85
2022/07/16 01:54:21;;;;;;;3.33;1.60;;;;;;;;;;4905171;29;20233;-86
2022/07/16 01:56:46;;;;;;;2.58;1.48;;;;;;;;;;4891606;29;20221;-83
2022/07/16 01:59:14;;;;;;;1.85;1.30;;;;;;;;;;4895722;29;20231;-82
2022/07/16 02:01:42;;;;;;;2.65;1.50;;;;;;;;;;4924081;29;20623;-84
2022/07/16 02:04:07;;;;;;;2.45;1.60;;;;;;;;;;4911827;29;20228;-84
2022/07/16 02:06:33;;;;;;;1.42;1.33;;;;;;;;;;4903475;29;20234;-86
2022/07/16 02:09:00;;;;;;;2.65;1.40;;;;;;;;;;4911205;29;20589;-86
2022/07/16 02:11:31;;;;;;;2.38;1.38;;;;;;;;;;4884239;29;20312;-85
2022/07/16 02:13:56;;;;;;;3.65;1.50;;;;;;;;;;4903174;29;20228;-84
2022/07/16 02:16:22;;;;;;;1.88;1.35;;;;;;;;;;4908850;29;20286;-85
2022/07/16 02:18:47;;;;;;;1.75;1.38;;;;;;;;;;4905524;29;20242;-86
2022/07/16 02:21:13;;;;;;;2.47;1.70;;;;;;;;;;4903399;29;20327;-84
2022/07/16 02:23:38;;;;;;;2.78;1.40;;;;;;;;;;4905046;29;20228;-86
2022/07/16 02:26:04;;;;;;;2.05;1.60;;;;;;;;;;4909803;29;20638;-85
2022/07/16 02:28:31;;;;;;;4.15;1.75;;;;;;;;;;4909661;29;20244;-87
2022/07/16 02:30:57;;;;;;;2.30;1.58;;;;;;;;;;4893434;29;20699;-86
2022/07/16 02:33:22;;;;;;;2.58;1.52;;;;;;;;;;4890509;29;20234;-85
2022/07/16 02:35:48;;;;;;;1.50;1.40;;;;;;;;;;4892491;29;20235;-84
2022/07/16 02:38:14;;;;;;;5.45;1.50;;;;;;;;;;4900885;29;20239;-86
2022/07/16 02:40:40;;;;;;;2.83;1.73;;;;;;;;;;4915700;29;20232;-84
2022/07/16 02:43:06;;;;;;;4.72;1.70;;;;;;;;;;4899277;29;20244;-85
2022/07/16 02:45:38;;;;;;;2.78;1.50;;;;;;;;;;4919150;29;20262;-86
2022/07/16 02:48:04;;;;;;;3.90;1.30;;;;;;;;;;4908441;29;20322;-86
2022/07/16 02:50:32;;;;;;;2.42;1.50;;;;;;;;;;4899502;29;20256;-86
2022/07/16 02:52:59;;;;;;;1.98;1.60;;;;;;;;;;4905957;29;20221;-86
2022/07/16 02:55:27;;;;;;;2.45;1.58;;;;;;;;;;4923029;29;20280;-85
2022/07/16 02:57:53;;;;;;;1.85;1.50;;;;;;;;;;4912492;29;20648;-85
2022/07/16 03:00:21;;;;;;;2.50;1.67;;;;;;;;;;4892711;29;20231;-86
2022/07/16 03:02:47;;;;;;;1.67;1.58;;;;;;;;;;4907769;29;20238;-84
2022/07/16 03:05:12;;;;;;;5.65;2.30;;;;;;;;;;4904521;29;20229;-86
2022/07/16 03:07:38;;;;;;;1.90;1.60;;;;;;;;;;4912873;29;20256;-83
2022/07/16 03:10:04;;;;;;;2.13;1.88;;;;;;;;;;4888125;29;20283;-83
2022/07/16 03:12:30;;;;;;;2.45;1.70;;;;;;;;;;4897155;29;20228;-86
2022/07/16 03:14:56;;;;;;;4.47;2.40;;;;;;;;;;4910226;29;20224;-84
2022/07/16 03:17:22;;;;;;;3.53;2.08;;;;;;;;;;4912271;29;22510;-87
2022/07/16 03:19:50;;;;;;;4.03;2.28;;;;;;;;;;4893764;29;20225;-86
2022/07/16 03:22:16;;;;;;;3.72;1.85;;;;;;;;;;4891205;29;20727;-84
2022/07/16 03:24:44;;;;;;;2.10;1.95;;;;;;;;;;4925379;29;20225;-83
2022/07/16 03:27:10;;;;;;;2.47;2.28;;;;;;;;;;4890693;29;20232;-85
2022/07/16 03:29:36;;;;;;;2.42;1.90;;;;;;;;;;4904252;29;20287;-87
2022/07/16 03:32:06;;;;;;;3.33;2.13;;;;;;;;;;4906862;29;20307;-84
2022/07/16 03:34:34;;;;;;;3.10;2.17;;;;;;;;;;4914456;29;20220;-85
2022/07/16 03:37:00;;;;;;;3.45;2.00;;;;;;;;;;4912094;29;20216;-85
2022/07/16 03:39:25;;;;;;;2.55;2.10;;;;;;;;;;4908276;29;20727;-85
2022/07/16 03:41:53;;;;;;;4.55;2.10;;;;;;;;;;4909739;29;20236;-86
2022/07/16 03:44:21;;;;;;;2.30;1.90;;;;;;;;;;4909257;29;20620;-85
2022/07/16 03:46:49;;;;;;;2.42;1.95;;;;;;;;;;4908719;29;20239;-87
2022/07/16 03:52:39;;;;;;;2.20;2.00;;;;;;;;;;4910729;29;20228;-75
2022/07/16 03:55:09;;;;;;;4.15;1.98;;;;;;;;;;4885478;29;20605;-76
2022/07/16 03:57:42;;;;;;;2.15;1.95;;;;;;;;;;4858004;29;20229;-76
2022/07/16 04:00:11;;;;;;;1.80;1.63;;;;;;;;;;4877594;29;20240;-76
2022/07/16 04:02:38;;;;;;;2.38;1.70;;;;;;;;;;4883794;29;20703;-76
2022/07/16 04:05:09;;;;;;;3.10;1.70;;;;;;;;;;4872708;29;20236;-76
2022/07/16 04:07:35;;;;;;;2.10;1.77;;;;;;;;;;4870273;29;20270;-76
2022/07/16 04:10:01;;;;;;;5.18;2.05;;;;;;;;;;4868001;29;20233;-75
2022/07/16 04:12:31;;;;;;;2.40;1.77;;;;;;;;;;4874723;29;20289;-76
2022/07/16 04:14:57;;;;;;;2.20;1.83;;;;;;;;;;4874153;29;20232;-75
2022/07/16 04:17:27;;;;;;;2.25;2.10;;;;;;;;;;4875499;29;20228;-75
2022/07/16 04:19:53;;;;;;;5.53;2.30;;;;;;;;;;4872596;29;20228;-77
2022/07/16 04:22:18;;;;;;;3.80;2.80;;;;;;;;;;4873719;29;20770;-75
2022/07/16 04:24:44;;;;;;;3.25;2.60;;;;;;;;;;4889336;29;20291;-77
2022/07/16 04:27:12;;;;;;;2.95;2.70;;;;;;;;;;4877655;29;20735;-75
2022/07/16 04:29:38;;;;;;;3.33;2.85;;;;;;;;;;4907764;29;20236;-76
2022/07/16 04:32:08;;;;;;;3.95;2.78;;;;;;;;;;4860089;29;20815;-75
2022/07/16 04:34:39;;;;;;;3.22;2.80;;;;;;;;;;4873791;29;20242;-74
2022/07/16 04:37:09;;;;;;;3.97;2.57;;;;;;;;;;4877684;29;20225;-77
2022/07/16 04:39:34;;;;;;;4.83;3.00;;;;;;;;;;4888450;29;20233;-75
2022/07/16 04:42:02;;;;;;;3.30;2.70;;;;;;;;;;4890800;29;20264;-75
2022/07/16 04:44:27;;;;;;;3.10;2.60;;;;;;;;;;4870142;29;20232;-74
2022/07/16 04:46:53;;;;;;;3.47;2.90;;;;;;;;;;4874763;29;20308;-74
2022/07/16 04:49:21;;;;;;;4.07;2.90;;;;;;;;;;4870892;29;20331;-75
2022/07/16 04:51:49;;;;;;;4.57;2.67;;;;;;;;;;4875092;29;20655;-75
2022/07/16 04:54:16;;;;;;;5.87;3.10;;;;;;;;;;4876647;29;20224;-75
2022/07/16 04:56:42;;;;;;;5.20;3.00;;;;;;;;;;4878878;29;20240;-75
2022/07/16 04:59:08;;;;;;;4.90;2.88;;;;;;;;;;4871666;29;20236;-76
2022/07/16 05:01:35;;;;;;;6.07;3.38;;;;;;;;;;4868081;29;20235;-75
2022/07/16 05:04:03;;;;;;;3.85;2.80;;;;;;;;;;4882099;29;20251;-75
2022/07/16 05:06:29;;;;;;;3.83;2.78;;;;;;;;;;4868906;29;20252;-74
2022/07/16 05:08:57;;;;;;;4.55;2.80;;;;;;;;;;4878472;29;20233;-74
2022/07/16 05:11:23;;;;;;;8.67;3.03;;;;;;;;;;4872841;29;20240;-75
2022/07/16 05:13:55;;;;;;;3.30;3.00;;;;;;;;;;4875954;29;20656;-76
2022/07/16 05:16:25;;;;;;;4.90;2.77;;;;;;;;;;4858061;29;20243;-75
2022/07/16 05:18:53;;;;;;;2.85;2.60;;;;;;;;;;4870603;29;20312;-75
2022/07/16 05:21:19;;;;;;;4.20;2.78;;;;;;;;;;4869122;29;20699;-75
2022/07/16 05:23:44;;;;;;;4.30;2.85;;;;;;;;;;4891077;29;20229;-75
2022/07/16 05:26:10;;;;;;;4.85;2.88;;;;;;;;;;4882598;29;20624;-76
2022/07/16 05:28:36;;;;;;;4.72;2.60;;;;;;;;;;4857972;29;20236;-75
2022/07/16 05:31:02;;;;;;;4.72;2.60;;;;;;;;;;4871901;29;20255;-75
2022/07/16 05:33:27;;;;;;;7.93;2.45;;;;;;;;;;4870884;29;20237;-76
2022/07/16 05:35:53;;;;;;;5.40;2.55;;;;;;;;;;4901168;23;20303;-83
2022/07/16 05:38:18;;;;;;;4.82;2.45;;;;;;;;;;4928273;29;20232;-86
2022/07/16 05:40:44;;;;;;;5.82;2.58;;;;;;;;;;4928828;29;20243;-82
2022/07/16 05:43:13;;;;;;;8.10;2.80;;;;;;;;;;4885222;29;20225;-84
2022/07/16 05:45:40;;;;;;;6.07;2.28;;;;;;;;;;4894479;29;20722;-82
2022/07/16 05:48:06;;;;;;;2.78;2.33;;;;;;;;;;4898602;29;20376;-81
2022/07/16 05:50:33;;;;;;;3.58;2.30;;;;;;;;;;4907800;29;20292;-80
2022/07/16 05:52:59;;;;;;;4.03;2.20;;;;;;;;;;4893125;29;20232;-80
2022/07/16 05:55:24;;;;;;;4.40;2.58;;;;;;;;;;4939897;29;20237;-80
2022/07/16 05:57:50;;;;;;;3.72;2.30;;;;;;;;;;4905287;29;20240;-82
2022/07/16 06:00:20;;;;;;;4.88;2.15;;;;;;;;;;4911474;29;20583;-80
2022/07/16 06:02:48;;;;;;;2.58;1.90;;;;;;;;;;4906418;29;20266;-79
2022/07/16 06:05:13;;;;;;;4.88;2.33;;;;;;;;;;4921845;29;20224;-82
2022/07/16 06:07:41;;;;;;;3.30;2.15;;;;;;;;;;4937311;29;20308;-82
2022/07/16 06:10:07;;;;;;;2.42;1.95;;;;;;;;;;4896133;29;20221;-81
2022/07/16 06:12:33;;;;;;;2.47;1.70;;;;;;;;;;4910984;29;20761;-81
2022/07/16 06:14:58;;;;;;;2.05;1.65;;;;;;;;;;4899117;29;20237;-84
2022/07/16 06:17:28;;;;;;;3.55;1.92;;;;;;;;;;4888821;29;20650;-83
2022/07/16 06:19:54;;;;;;;3.72;1.83;;;;;;;;;;4928241;29;20236;-82
2022/07/16 06:22:19;;;;;;;3.20;1.40;;;;;;;;;;4900478;29;20228;-85
2022/07/16 06:24:45;;;;;;;2.83;1.60;;;;;;;;;;4901056;29;20309;-84
2022/07/16 06:27:10;;;;;;;4.00;1.80;;;;;;;;;;4911412;29;20225;-83
2022/07/16 06:29:38;;;;;;;3.28;1.58;;;;;;;;;;4907199;29;20224;-83
2022/07/16 06:32:04;;;;;;;3.53;1.80;;;;;;;;;;4897947;29;20368;-83
2022/07/16 06:34:30;;;;;;;2.75;1.40;;;;;;;;;;4881532;29;20324;-83
2022/07/16 06:36:57;;;;;;;2.22;1.50;;;;;;;;;;4918892;29;20622;-84
2022/07/16 06:39:26;;;;;;;1.85;1.33;;;;;;;;;;4890762;29;20230;-84
2022/07/16 06:41:54;;;;;;;3.00;1.25;;;;;;;;;;4905588;29;20245;-84
2022/07/16 06:44:20;;;;;;;2.50;1.35;;;;;;;;;;4918996;29;20285;-84
2022/07/16 06:46:48;;;;;;;1.58;1.20;;;;;;;;;;4899712;29;20225;-84
2022/07/16 06:49:14;;;;;;;2.20;1.10;;;;;;;;;;4908148;29;20289;-83
2022/07/16 06:51:40;;;;;;;2.22;1.40;;;;;;;;;;4930968;29;20246;-81
2022/07/16 06:54:08;;;;;;;1.95;1.20;;;;;;;;;;4917791;29;20288;-83
2022/07/16 06:56:33;;;;;;;2.15;1.15;;;;;;;;;;4911795;29;20868;-86
2022/07/16 06:59:02;;;;;;;1.67;1.45;;;;;;;;;;4906397;29;20230;-84
2022/07/16 07:01:27;;;;;;;1.85;1.40;;;;;;;;;;4882942;29;20270;-88
2022/07/16 07:03:55;;;;;;;3.22;1.50;;;;;;;;;;4886294;29;20240;-82
2022/07/16 07:06:21;;;;;;;3.33;1.33;;;;;;;;;;4905702;29;20223;-81
2022/07/16 07:08:47;;;;;;;2.85;1.40;;;;;;;;;;4894165;29;20241;-82
2022/07/16 07:11:15;;;;;;;2.45;1.20;;;;;;;;;;4871153;29;20228;-88
2022/07/16 07:13:41;;;;;;;3.95;1.70;;;;;;;;;;4901723;29;20367;-83
2022/07/16 07:16:09;;;;;;;2.13;1.20;;;;;;;;;;4890573;29;20229;-85
2022/07/16 07:18:35;;;;;;;2.63;1.30;;;;;;;;;;4916559;29;20221;-82
2022/07/16 07:21:02;;;;;;;2.58;1.38;;;;;;;;;;4884558;29;20523;-81
2022/07/16 07:23:28;;;;;;;2.63;1.50;;;;;;;;;;4891036;29;20230;-86
2022/07/16 07:25:54;;;;;;;3.53;1.50;;;;;;;;;;4897289;29;20248;-85
2022/07/16 07:28:19;;;;;;;4.25;1.40;;;;;;;;;;4893493;29;20238;-84
2022/07/16 07:30:45;;;;;;;1.95;1.10;;;;;;;;;;4890824;29;20233;-85
2022/07/16 07:33:10;;;;;;;3.40;1.27;;;;;;;;;;4906587;29;20220;-80
2022/07/16 07:35:36;;;;;;;2.28;1.20;;;;;;;;;;4898426;29;20237;-83
2022/07/16 07:38:01;;;;;;;3.63;1.40;;;;;;;;;;4907904;29;20390;-83
2022/07/16 07:40:29;;;;;;;4.57;1.40;;;;;;;;;;4938760;23;20236;-77
2022/07/16 07:45:31;;;;;;;3.22;1.20;;;;;;;;;;4901314;29;20232;-75
2022/07/16 07:48:01;;;;;;;4.40;0.93;;;;;;;;;;4901112;29;20232;-78
2022/07/16 07:50:26;;;;;;;2.75;1.30;;;;;;;;;;4877680;29;20640;-75
2022/07/16 07:52:54;;;;;;;3.70;1.40;;;;;;;;;;4894322;29;20221;-76
2022/07/16 07:55:20;;;;;;;2.47;1.08;;;;;;;;;;4880239;29;20680;-74
2022/07/16 07:57:46;;;;;;;5.45;1.10;;;;;;;;;;4915076;29;20232;-74
2022/07/16 08:00:11;;;;;;;4.07;1.38;;;;;;;;;;4920189;29;20873;-74
2022/07/16 08:02:46;;;;;;;1.95;1.17;;;;;;;;;;4875464;29;20312;-75
2022/07/16 08:05:17;;;;;;;6.57;1.30;;;;;;;;;;4889018;29;20296;-75
2022/07/16 08:07:43;;;;;;;3.22;1.20;;;;;;;;;;4860067;29;20236;-72
2022/07/16 08:10:09;;;;;;;5.97;1.20;;;;;;;;;;4901439;29;20239;-73
2022/07/16 08:12:37;;;;;;;2.90;1.33;;;;;;;;;;4872915;29;20684;-73
2022/07/16 08:15:04;;;;;;;3.20;1.23;;;;;;;;;;4886781;29;20261;-74
2022/07/16 08:17:31;;;;;;;4.53;1.40;;;;;;;;;;4850188;29;20324;-74
2022/07/16 08:20:01;;;;;;;2.90;1.00;;;;;;;;;;4878507;29;20231;-76
2022/07/16 08:22:27;;;;;;;3.42;1.10;;;;;;;;;;4874647;29;20220;-77
2022/07/16 08:27:37;;;;;;;3.97;1.20;;;;;;;;;;4895560;29;20229;-74
2022/07/16 08:30:07;;;;;;;3.47;1.20;;;;;;;;;;4910685;29;20224;-73
2022/07/16 08:32:36;;;;;;;2.08;1.00;;;;;;;;;;4899622;29;20229;-74
2022/07/16 08:35:03;;;;;;;2.63;1.08;;;;;;;;;;4892797;29;20303;-74
2022/07/16 08:37:38;;;;;;;3.60;1.08;;;;;;;;;;4875286;29;20224;-74
2022/07/16 08:40:05;;;;;;;4.55;1.00;;;;;;;;;;4883988;29;20733;-77
2022/07/16 08:42:34;;;;;;;4.72;1.02;;;;;;;;;;4881809;29;20235;-73
2022/07/16 08:45:00;;;;;;;1.80;0.80;;;;;;;;;;4895332;29;20286;-74
2022/07/16 08:47:29;;;;;;;2.05;0.95;;;;;;;;;;4866186;29;20568;-76
2022/07/16 08:49:58;;;;;;;2.63;1.00;;;;;;;;;;4881009;29;20236;-75
2022/07/16 08:52:25;;;;;;;3.15;0.95;;;;;;;;;;4892818;29;20260;-76
2022/07/16 08:54:51;;;;;;;3.40;1.02;;;;;;;;;;4893426;29;20782;-74
2022/07/16 08:57:17;;;;;;;4.13;1.00;;;;;;;;;;4874665;29;20228;-72
2022/07/16 08:59:47;;;;;;;2.88;1.00;;;;;;;;;;4872336;29;20225;-73
2022/07/16 09:02:18;;;;;;;2.60;1.00;;;;;;;;;;4887369;29;20343;-72
2022/07/16 09:04:48;;;;;;;1.77;0.80;;;;;;;;;;4900427;29;20239;-73
2022/07/16 09:07:17;;;;;;;1.35;0.90;;;;;;;;;;4885570;29;20231;-76
2022/07/16 09:09:45;;;;;;;3.92;1.00;;;;;;;;;;4877644;29;20727;-74
2022/07/16 09:12:14;;;;;;;1.77;0.90;;;;;;;;;;4859638;29;20224;-72
2022/07/16 09:14:41;;;;;;;2.90;1.10;;;;;;;;;;4888653;29;20252;-76
2022/07/16 09:17:12;;;;;;;3.03;1.02;;;;;;;;;;4892492;29;20320;-74
2022/07/16 09:19:37;;;;;;;3.80;1.02;;;;;;;;;;4906133;29;20312;-75
2022/07/16 09:22:11;;;;;;;3.72;1.10;;;;;;;;;;4878955;29;20836;-75
2022/07/16 09:24:43;;;;;;;2.20;1.10;;;;;;;;;;4892910;29;20245;-75
2022/07/16 09:27:16;;;;;;;3.88;1.27;;;;;;;;;;4875638;29;21209;-74
2022/07/16 09:29:47;;;;;;;3.83;1.27;;;;;;;;;;4879037;29;20312;-74
2022/07/16 09:32:15;;;;;;;2.78;1.10;;;;;;;;;;4893077;29;20317;-74
2022/07/16 09:34:41;;;;;;;3.13;1.15;;;;;;;;;;4899534;29;20240;-76
2022/07/16 09:37:07;;;;;;;5.80;1.50;;;;;;;;;;4893362;29;20225;-76
2022/07/16 09:39:36;;;;;;;6.18;1.10;;;;;;;;;;4867977;29;20817;-75
2022/07/16 09:42:04;;;;;;;3.03;1.33;;;;;;;;;;4890766;29;20782;-72
2022/07/16 09:44:43;;;;;;;4.95;1.55;;;;;;;;;;4900068;29;20240;-71
2022/07/16 09:47:10;;;;;;;4.50;1.27;;;;;;;;;;4905434;29;20232;-74
2022/07/16 09:49:40;;;;;;;3.25;1.15;;;;;;;;;;4877162;29;20256;-74
2022/07/16 09:52:25;;;;;;;6.05;1.33;;;;;;;;;;4883125;29;20229;-72
2022/07/16 09:54:58;;;;;;;4.47;1.13;;;;;;;;;;4892039;29;20670;-76
2022/07/16 09:57:25;;;;;;;2.50;0.88;;;;;;;;;;4893356;29;20765;-73
2022/07/16 09:59:51;;;;;;;1.88;0.95;;;;;;;;;;4890947;29;20252;-72
2022/07/16 10:02:17;;;;;;;3.17;1.05;;;;;;;;;;4878706;29;20264;-76
2022/07/16 10:04:44;;;;;;;2.63;0.98;;;;;;;;;;4869793;29;20648;-74
2022/07/16 10:07:13;;;;;;;5.38;1.10;;;;;;;;;;4894834;29;20236;-77
2022/07/16 10:09:39;;;;;;;2.40;0.90;;;;;;;;;;4909444;29;20251;-73
2022/07/16 10:12:13;;;;;;;3.72;1.10;;;;;;;;;;4892647;29;20700;-75
2022/07/16 10:14:47;;;;;;;1.92;0.90;;;;;;;;;;4880156;29;20733;-77
2022/07/16 10:17:19;;;;;;;3.42;1.00;;;;;;;;;;4879187;29;20224;-75
2022/07/16 10:20:04;;;;;;;3.20;1.23;;;;;;;;;;4889468;29;20228;-75
2022/07/16 10:22:35;;;;;;;3.45;1.40;;;;;;;;;;4896326;29;20243;-76
2022/07/16 10:25:06;;;;;;;1.67;1.00;;;;;;;;;;4887403;29;20758;-76
2022/07/16 10:27:35;;;;;;;3.33;1.10;;;;;;;;;;4876808;29;20232;-72
2022/07/16 10:30:24;;;;;;;1.15;0.80;;;;;;;;;;4894887;29;20334;-78
2022/07/16 10:33:00;;;;;;;1.75;0.98;;;;;;;;;;4892637;29;20284;-74
2022/07/16 10:35:28;;;;;;;3.72;1.10;;;;;;;;;;4889434;29;20229;-73
2022/07/16 10:38:04;;;;;;;4.90;1.10;;;;;;;;;;4907539;29;20237;-73
2022/07/16 10:40:32;;;;;;;1.75;0.90;;;;;;;;;;4885027;29;20343;-73
2022/07/16 10:43:24;;;;;;;3.13;1.13;;;;;;;;;;4896032;29;20316;-74
2022/07/16 10:45:58;;;;;;;3.35;0.98;;;;;;;;;;4908491;29;20315;-74
2022/07/16 10:48:32;;;;;;;3.15;1.00;;;;;;;;;;4892669;29;20263;-72
2022/07/16 10:51:20;;;;;;;1.63;0.73;;;;;;;;;;4871208;29;20270;-76
2022/07/16 10:53:57;;;;;;;5.10;1.25;;;;;;;;;;4898240;29;20237;-75
2022/07/16 10:56:36;;;;;;;3.85;0.82;;;;;;;;;;4904585;29;20224;-78
2022/07/16 10:59:09;;;;;;;5.80;1.40;;;;;;;;;;4896827;29;20236;-77
2022/07/16 11:01:36;;;;;;;3.30;1.02;;;;;;;;;;4901248;29;20224;-75
2022/07/16 11:04:05;;;;;;;1.90;0.90;;;;;;;;;;4901045;29;20217;-76
2022/07/16 11:06:31;;;;;;;2.88;1.10;;;;;;;;;;4890519;29;20220;-75
2022/07/16 11:08:57;;;;;;;1.70;0.90;;;;;;;;;;4893235;29;20255;-78
2022/07/16 11:11:22;;;;;;;2.83;0.90;;;;;;;;;;4885890;29;20256;-77
2022/07/16 11:13:54;;;;;;;4.47;1.00;;;;;;;;;;4885844;29;20216;-75
2022/07/16 11:16:20;;;;;;;3.38;1.00;;;;;;;;;;4898210;29;20236;-74
2022/07/16 11:18:50;;;;;;;1.30;0.85;;;;;;;;;;4884509;29;20253;-75
2022/07/16 11:21:18;;;;;;;1.60;0.70;;;;;;;;;;4883003;29;20264;-78
2022/07/16 11:23:48;;;;;;;2.83;0.82;;;;;;;;;;4900913;29;20712;-78
2022/07/16 11:26:13;;;;;;;2.60;0.70;;;;;;;;;;4904546;29;20231;-76
2022/07/16 11:28:58;;;;;;;2.53;0.80;;;;;;;;;;4913801;29;20490;-75
2022/07/16 11:31:27;;;;;;;2.35;0.90;;;;;;;;;;4873207;29;20224;-74
2022/07/16 11:34:03;;;;;;;3.67;1.10;;;;;;;;;;4900475;29;20324;-77
2022/07/16 11:36:32;;;;;;;1.10;0.68;;;;;;;;;;4871092;29;20248;-72
2022/07/16 11:39:02;;;;;;;2.30;0.88;;;;;;;;;;4895083;29;20233;-75
2022/07/16 11:41:33;;;;;;;1.67;0.85;;;;;;;;;;4877752;29;20233;-73
2022/07/16 11:43:59;;;;;;;2.45;0.80;;;;;;;;;;4883226;29;20228;-76
2022/07/16 11:46:27;;;;;;;1.17;0.80;;;;;;;;;;4899968;29;20220;-75
2022/07/16 11:48:57;;;;;;;2.28;0.70;;;;;;;;;;4891559;29;20646;-76
2022/07/16 11:51:29;;;;;;;2.40;0.68;;;;;;;;;;4902890;29;20216;-74
2022/07/16 11:53:57;;;;;;;2.40;0.60;;;;;;;;;;4916570;29;20224;-75
2022/07/16 11:56:38;;;;;;;1.27;0.90;;;;;;;;;;4914170;29;20240;-75
2022/07/16 11:59:17;;;;;;;3.85;0.90;;;;;;;;;;4887757;29;20993;-75
2022/07/16 12:01:45;;;;;;;1.42;0.70;;;;;;;;;;4917134;29;20307;-74
2022/07/16 12:04:10;;;;;;;1.63;0.80;;;;;;;;;;4888605;29;20212;-75
2022/07/16 12:06:36;;;;;;;1.65;0.70;;;;;;;;;;4892173;29;20315;-76
2022/07/16 12:09:04;;;;;;;2.85;1.00;;;;;;;;;;4893317;29;20314;-75
2022/07/16 12:11:36;;;;;;;2.30;1.08;;;;;;;;;;4889484;29;20225;-74
2022/07/16 12:14:04;;;;;;;1.77;0.95;;;;;;;;;;4914334;29;20224;-74
2022/07/16 12:16:31;;;;;;;2.22;1.08;;;;;;;;;;4898872;29;20245;-74
2022/07/16 12:19:05;;;;;;;3.05;1.15;;;;;;;;;;4896843;29;20238;-74
2022/07/16 12:21:34;;;;;;;4.40;1.00;;;;;;;;;;4892996;29;20306;-75
2022/07/16 12:24:01;;;;;;;2.58;0.93;;;;;;;;;;4905299;29;20240;-75
2022/07/16 12:26:38;;;;;;;2.65;1.05;;;;;;;;;;4887556;29;20220;-75
2022/07/16 12:29:06;;;;;;;3.30;1.48;;;;;;;;;;4897703;29;20335;-77
2022/07/16 12:31:32;;;;;;;2.45;1.05;;;;;;;;;;4898028;29;20315;-73
2022/07/16 12:33:59;;;;;;;2.15;1.10;;;;;;;;;;4884311;29;20348;-74
2022/07/16 12:36:34;;;;;;;2.03;0.90;;;;;;;;;;4898656;29;20816;-73
2022/07/16 12:39:04;;;;;;;5.10;3.05;;;;;;;;;;4897783;29;20260;-75
2022/07/16 12:41:40;;;;;;;3.67;1.20;;;;;;;;;;4897955;29;20232;-75
2022/07/16 12:44:06;;;;;;;4.18;1.10;;;;;;;;;;4884355;29;20292;-73
2022/07/16 12:46:34;;;;;;;2.53;1.00;;;;;;;;;;4898127;29;20684;-76
2022/07/16 12:49:03;;;;;;;3.30;1.00;;;;;;;;;;4914072;29;20236;-74
2022/07/16 12:51:30;;;;;;;4.15;0.90;;;;;;;;;;4885087;29;20229;-75
2022/07/16 12:53:57;;;;;;;3.30;1.08;;;;;;;;;;4899352;29;20237;-76
2022/07/16 12:59:07;;;;;;;1.38;0.65;;;;;;;;;;4893355;29;20538;-76
2022/07/16 13:01:32;;;;;;;2.20;0.77;;;;;;;;;;4903178;29;20224;-75
2022/07/16 13:04:01;;;;;;;1.88;0.82;;;;;;;;;;4890960;29;20221;-76
2022/07/16 13:06:26;;;;;;;2.15;0.90;;;;;;;;;;4903913;29;20224;-77
2022/07/16 13:08:52;;;;;;;3.70;0.90;;;;;;;;;;4916959;29;20228;-74
2022/07/16 13:11:20;;;;;;;2.67;0.93;;;;;;;;;;4885289;29;20284;-77
2022/07/16 13:13:46;;;;;;;3.03;0.90;;;;;;;;;;4865760;29;20285;-77
2022/07/16 13:16:17;;;;;;;3.17;0.90;;;;;;;;;;4884777;29;20212;-74
2022/07/16 13:18:49;;;;;;;3.58;0.90;;;;;;;;;;4901840;29;20746;-77
2022/07/16 13:21:14;;;;;;;2.05;1.00;;;;;;;;;;4902538;29;20228;-79
2022/07/16 13:23:41;;;;;;;1.75;0.90;;;;;;;;;;4905384;29;20923;-79
2022/07/16 13:26:09;;;;;;;2.47;0.95;;;;;;;;;;4899341;29;20232;-75
2022/07/16 13:28:34;;;;;;;2.55;1.00;;;;;;;;;;4895035;29;20225;-76
2022/07/16 13:31:00;;;;;;;2.55;1.00;;;;;;;;;;4901050;29;20253;-74
2022/07/16 13:33:26;;;;;;;2.08;1.20;;;;;;;;;;4895006;29;20225;-76
2022/07/16 13:35:56;;;;;;;4.93;1.08;;;;;;;;;;4882858;29;20224;-74
2022/07/16 13:38:22;;;;;;;1.90;0.88;;;;;;;;;;4893714;29;20591;-77
2022/07/16 13:40:50;;;;;;;5.82;1.48;;;;;;;;;;4883362;29;20433;-78
2022/07/16 13:43:17;;;;;;;4.35;1.10;;;;;;;;;;4900850;29;20232;-76
2022/07/16 13:45:43;;;;;;;2.97;1.08;;;;;;;;;;4899952;29;20237;-74
2022/07/16 13:48:14;;;;;;;3.42;1.17;;;;;;;;;;4875406;29;20758;-75
2022/07/16 13:50:42;;;;;;;3.17;1.15;;;;;;;;;;4888095;29;20596;-77
2022/07/16 13:53:08;;;;;;;2.35;0.82;;;;;;;;;;4898337;29;20241;-74
2022/07/16 13:55:34;;;;;;;2.80;1.13;;;;;;;;;;4865175;29;20719;-76
2022/07/16 13:58:15;;;;;;;2.72;1.00;;;;;;;;;;4886362;29;20216;-75
2022/07/16 14:00:47;;;;;;;2.80;1.10;;;;;;;;;;4902921;29;20252;-77
2022/07/16 14:03:13;;;;;;;2.78;1.08;;;;;;;;;;4883841;29;20239;-75
2022/07/16 14:05:39;;;;;;;4.57;1.15;;;;;;;;;;4882571;29;20229;-75
2022/07/16 14:08:07;;;;;;;2.47;1.13;;;;;;;;;;4894640;29;20256;-77
2022/07/16 14:10:36;;;;;;;2.33;1.10;;;;;;;;;;4899052;29;20309;-78
2022/07/16 14:13:02;;;;;;;3.33;1.13;;;;;;;;;;4893132;29;20655;-71
2022/07/16 14:15:29;;;;;;;2.85;1.02;;;;;;;;;;4896832;29;20762;-72
2022/07/16 14:18:03;;;;;;;3.88;1.30;;;;;;;;;;4891170;29;20271;-73
2022/07/16 14:20:37;;;;;;;2.47;1.15;;;;;;;;;;4885432;29;20229;-75
2022/07/16 14:23:05;;;;;;;3.33;1.23;;;;;;;;;;4891220;29;20695;-73
2022/07/16 14:25:30;;;;;;;2.85;1.02;;;;;;;;;;4908506;29;20248;-74
2022/07/16 14:27:57;;;;;;;3.92;1.13;;;;;;;;;;4878099;29;20299;-74
2022/07/16 14:30:22;;;;;;;1.92;1.00;;;;;;;;;;4910576;29;20225;-73
2022/07/16 14:32:48;;;;;;;3.95;1.20;;;;;;;;;;4879001;29;20233;-76
2022/07/16 14:35:18;;;;;;;4.70;1.38;;;;;;;;;;4890556;29;20854;-75
2022/07/16 14:37:46;;;;;;;2.38;1.02;;;;;;;;;;4878284;29;20711;-75
2022/07/16 14:40:15;;;;;;;2.45;1.15;;;;;;;;;;4880281;29;20220;-75
2022/07/16 14:42:41;;;;;;;4.32;1.25;;;;;;;;;;4902587;29;20563;-75
2022/07/16 14:45:07;;;;;;;2.65;1.10;;;;;;;;;;4886685;29;20289;-73
2022/07/16 14:47:34;;;;;;;3.35;1.15;;;;;;;;;;4913778;29;20236;-79
2022/07/16 14:49:59;;;;;;;6.70;2.55;;;;;;;;;;4896734;29;20261;-74
2022/07/16 14:52:28;;;;;;;3.65;1.08;;;;;;;;;;4896248;29;20216;-78
2022/07/16 14:54:56;;;;;;;3.55;1.48;;;;;;;;;;4898022;29;20230;-74
2022/07/16 14:57:21;;;;;;;4.47;1.92;;;;;;;;;;4895160;29;20307;-76
2022/07/16 14:59:47;;;;;;;6.85;4.95;;;;;;;;;;4894073;29;20379;-75
2022/07/16 15:02:13;;;;;;;16.88;11.30;;;;;;;;;;4892093;29;20232;-75
2022/07/16 15:04:39;;;;;;;2.92;1.10;;;;;;;;;;4885336;29;20239;-77